createdAt,value
2022-12-19T00:00:27.699Z,96935.75
2022-12-19T00:01:34.938Z,96924.72
2022-12-19T00:02:37.019Z,96928.91
2022-12-19T00:03:41.626Z,96928.81
2022-12-19T00:04:43.633Z,96927.09
2022-12-19T00:05:48.182Z,96938.88
2022-12-19T00:06:50.168Z,96938.81
2022-12-19T00:07:54.749Z,96942.13
2022-12-19T00:08:59.081Z,96947.13
2022-12-19T00:10:03.685Z,96950.44
2022-12-19T00:11:08.252Z,96949.56
2022-12-19T00:12:18.845Z,96949.56
2022-12-19T00:13:21.187Z,96953.75
2022-12-19T00:14:25.723Z,96943.63
2022-12-19T00:15:27.723Z,96946.16
2022-12-19T00:16:33.232Z,96948.69
2022-12-19T00:17:35.325Z,96951.22
2022-12-19T00:18:42.453Z,96948.69
2022-12-19T00:19:44.413Z,96946.19
2022-12-19T00:20:57.583Z,96950.47
2022-12-19T00:21:59.538Z,96947.94
2022-12-19T00:23:04.074Z,96951.41
2022-12-19T00:24:14.523Z,96943.84
2022-12-19T00:25:26.099Z,96947.25
2022-12-19T00:26:32.768Z,96950.63
2022-12-19T00:27:37.551Z,96941.31
2022-12-19T00:28:40.177Z,96950.63
2022-12-19T00:29:44.780Z,96952.25
2022-12-19T00:30:46.854Z,96947.19
2022-12-19T00:31:51.467Z,96954.81
2022-12-19T00:32:53.437Z,96956.50
2022-12-19T00:33:58.667Z,96960.66
2022-12-19T00:35:01.165Z,96959.81
2022-12-19T00:36:08.840Z,96955.69
2022-12-19T00:37:11.967Z,96954.81
2022-12-19T00:38:16.568Z,96951.41
2022-12-19T00:39:18.634Z,96955.69
2022-12-19T00:40:23.173Z,96952.31
2022-12-19T00:41:31.485Z,96950.63
2022-12-19T00:42:36.055Z,96958.28
2022-12-19T00:43:38.600Z,96955.72
2022-12-19T00:44:43.139Z,96959.16
2022-12-19T00:45:45.145Z,96960.88
2022-12-19T00:46:52.714Z,96966.06
2022-12-19T00:47:55.064Z,96962.72
2022-12-19T00:48:59.690Z,96966.97
2022-12-19T00:50:01.654Z,96961.84
2022-12-19T00:51:07.468Z,96970.31
2022-12-19T00:52:09.445Z,96972.84
2022-12-19T00:53:14.032Z,96970.31
2022-12-19T00:54:15.995Z,96968.59
2022-12-19T00:55:20.893Z,96966.97
2022-12-19T00:56:25.254Z,96966.13
2022-12-19T00:57:32.353Z,96970.38
2022-12-19T00:58:35.736Z,96968.69
2022-12-19T00:59:40.355Z,96967.00
2022-12-19T01:00:42.414Z,96961.97
2022-12-19T01:01:48.006Z,96957.78
2022-12-19T01:02:50.945Z,96965.50
2022-12-19T01:04:27.227Z,96957.88
2022-12-19T01:05:20.875Z,96959.56
2022-12-19T01:06:23.057Z,96953.75
2022-12-19T01:07:27.786Z,96957.13
2022-12-19T01:08:29.804Z,96959.66
2022-12-19T01:09:37.727Z,96955.47
2022-12-19T01:10:45.594Z,96958.00
2022-12-19T01:12:02.619Z,96952.94
2022-12-19T01:13:09.759Z,96958.91
2022-12-19T01:14:17.448Z,96953.88
2022-12-19T01:15:25.737Z,96953.91
2022-12-19T01:16:27.698Z,96953.06
2022-12-19T01:17:35.543Z,96942.91
2022-12-19T01:18:48.441Z,96941.25
2022-12-19T01:19:50.366Z,96952.31
2022-12-19T01:20:54.974Z,96948.84
2022-12-19T01:21:56.969Z,96943.75
2022-12-19T01:23:02.529Z,96945.44
2022-12-19T01:24:06.286Z,96942.91
2022-12-19T01:25:11.314Z,96947.16
2022-12-19T01:26:13.311Z,96948.00
2022-12-19T01:27:17.926Z,96948.88
2022-12-19T01:28:22.948Z,96953.16
2022-12-19T01:29:27.498Z,96948.88
2022-12-19T01:30:30.801Z,96952.31
2022-12-19T01:31:36.813Z,96953.19
2022-12-19T01:32:38.843Z,96943.88
2022-12-19T01:33:43.391Z,96948.22
2022-12-19T01:34:47.277Z,96946.59
2022-12-19T01:35:51.884Z,96943.16
2022-12-19T01:36:53.852Z,96936.38
2022-12-19T01:38:06.103Z,96934.69
2022-12-19T01:39:10.609Z,96938.06
2022-12-19T01:40:16.316Z,96922.00
2022-12-19T01:41:18.293Z,96904.22
2022-12-19T01:42:24.835Z,96916.94
2022-12-19T01:43:32.123Z,96926.06
2022-12-19T01:44:37.070Z,96916.00
2022-12-19T01:45:45.429Z,96916.06
2022-12-19T01:46:52.837Z,96905.91
2022-12-19T01:47:56.964Z,96891.56
2022-12-19T01:49:02.929Z,96889.09
2022-12-19T01:50:05.978Z,96892.44
2022-12-19T01:51:17.062Z,96890.81
2022-12-19T01:52:23.694Z,96891.72
2022-12-19T01:53:30.735Z,96896.75
2022-12-19T01:54:36.012Z,96904.34
2022-12-19T01:55:43.993Z,96900.09
2022-12-19T01:56:50.233Z,96905.16
2022-12-19T01:57:56.359Z,96910.22
2022-12-19T01:59:07.378Z,96923.78
2022-12-19T02:00:13.544Z,96931.22
2022-12-19T02:01:18.094Z,96932.16
2022-12-19T02:02:28.207Z,96923.72
2022-12-19T02:03:33.635Z,96930.47
2022-12-19T02:04:38.635Z,96924.47
2022-12-19T02:05:41.217Z,96933.97
2022-12-19T02:06:46.242Z,96924.69
2022-12-19T02:07:49.597Z,96917.88
2022-12-19T02:08:54.301Z,96910.25
2022-12-19T02:09:57.834Z,96908.59
2022-12-19T02:11:02.429Z,96895.09
2022-12-19T02:12:05.257Z,96890.91
2022-12-19T02:13:10.905Z,96896.91
2022-12-19T02:14:15.678Z,96890.16
2022-12-19T02:15:21.029Z,96885.13
2022-12-19T02:16:31.968Z,96895.31
2022-12-19T02:17:46.519Z,96897.84
2022-12-19T02:19:02.323Z,96895.38
2022-12-19T02:20:45.430Z,96904.66
2022-12-19T02:21:55.151Z,96904.63
2022-12-19T02:23:17.934Z,96897.03
2022-12-19T02:24:54.395Z,96892.06
2022-12-19T02:26:15.198Z,96884.47
2022-12-19T02:27:41.984Z,96881.94
2022-12-19T02:29:01.657Z,96882.81
2022-12-19T02:30:13.817Z,96886.25
2022-12-19T02:31:23.352Z,96882.81
2022-12-19T02:32:36.220Z,96876.06
2022-12-19T02:33:43.795Z,96877.81
2022-12-19T02:34:56.525Z,96874.47
2022-12-19T02:36:05.409Z,96866.84
2022-12-19T02:37:14.215Z,96859.25
2022-12-19T02:38:23.226Z,96853.38
2022-12-19T02:39:34.333Z,96862.72
2022-12-19T02:40:41.893Z,96864.41
2022-12-19T02:41:52.768Z,96859.38
2022-12-19T02:42:58.557Z,96867.00
2022-12-19T02:44:03.912Z,96859.38
2022-12-19T02:45:09.187Z,96856.88
2022-12-19T02:46:15.296Z,96868.75
2022-12-19T02:47:21.140Z,96875.56
2022-12-19T02:48:26.918Z,96870.50
2022-12-19T02:49:31.082Z,96866.28
2022-12-19T02:50:40.618Z,96859.53
2022-12-19T02:51:42.618Z,96864.56
2022-12-19T02:52:50.053Z,96853.56
2022-12-19T02:53:52.157Z,96862.06
2022-12-19T02:55:00.109Z,96867.19
2022-12-19T02:56:23.247Z,96865.47
2022-12-19T02:57:32.817Z,96864.66
2022-12-19T02:58:58.349Z,96864.69
2022-12-19T03:00:08.943Z,96860.50
2022-12-19T03:01:20.866Z,96860.53
2022-12-19T03:02:37.384Z,96862.22
2022-12-19T03:03:47.712Z,96866.47
2022-12-19T03:05:00.236Z,96861.38
2022-12-19T03:06:12.840Z,96865.66
2022-12-19T03:07:27.863Z,96870.75
2022-12-19T03:08:37.896Z,96865.66
2022-12-19T03:09:49.592Z,96859.75
2022-12-19T03:10:58.211Z,96862.28
2022-12-19T03:12:14.091Z,96862.28
2022-12-19T03:13:22.074Z,96880.97
2022-12-19T03:14:27.482Z,96876.69
2022-12-19T03:15:29.942Z,96887.75
2022-12-19T03:16:37.408Z,96889.44
2022-12-19T03:17:42.553Z,96888.63
2022-12-19T03:18:47.490Z,96897.97
2022-12-19T03:19:49.953Z,96897.97
2022-12-19T03:20:57.801Z,96888.72
2022-12-19T03:21:59.921Z,96890.41
2022-12-19T03:23:04.557Z,96874.31
2022-12-19T03:24:11.902Z,96869.22
2022-12-19T03:25:16.826Z,96866.69
2022-12-19T03:26:21.050Z,96864.16
2022-12-19T03:27:32.070Z,96871.75
2022-12-19T03:28:39.224Z,96880.25
2022-12-19T03:29:50.794Z,96876.81
2022-12-19T03:30:53.062Z,96873.47
2022-12-19T03:31:59.430Z,96874.31
2022-12-19T03:33:04.466Z,96872.59
2022-12-19T03:34:14.976Z,96870.88
2022-12-19T03:35:19.327Z,96872.59
2022-12-19T03:36:30.205Z,96863.22
2022-12-19T03:37:35.507Z,96857.25
2022-12-19T03:38:42.578Z,96855.59
2022-12-19T03:39:49.722Z,96858.13
2022-12-19T03:40:55.723Z,96858.16
2022-12-19T03:42:14.973Z,96864.97
2022-12-19T03:43:17.986Z,96874.31
2022-12-19T03:44:23.044Z,96872.59
2022-12-19T03:45:35.756Z,96882.84
2022-12-19T03:46:42.520Z,96878.53
2022-12-19T03:47:52.314Z,96881.94
2022-12-19T03:48:57.103Z,96889.63
2022-12-19T03:50:01.768Z,96892.16
2022-12-19T03:51:13.705Z,96890.50
2022-12-19T03:52:27.372Z,96887.13
2022-12-19T03:53:44.403Z,96879.50
2022-12-19T03:54:54.245Z,96881.25
2022-12-19T03:56:03.339Z,96878.69
2022-12-19T03:57:12.286Z,96878.69
2022-12-19T03:58:19.516Z,96893.13
2022-12-19T03:59:34.736Z,96889.72
2022-12-19T04:00:40.617Z,96892.31
2022-12-19T04:01:46.961Z,96894.03
2022-12-19T04:02:51.499Z,96894.88
2022-12-19T04:03:56.646Z,96896.56
2022-12-19T04:05:09.088Z,96889.81
2022-12-19T04:06:15.901Z,96883.91
2022-12-19T04:07:18.583Z,96885.63
2022-12-19T04:08:24.075Z,96882.22
2022-12-19T04:09:26.339Z,96879.69
2022-12-19T04:10:32.241Z,96881.38
2022-12-19T04:11:39.608Z,96891.56
2022-12-19T04:12:50.167Z,96891.56
2022-12-19T04:14:00.623Z,96895.00
2022-12-19T04:15:06.114Z,96908.47
2022-12-19T04:16:17.455Z,96897.47
2022-12-19T04:17:29.867Z,96905.06
2022-12-19T04:18:33.489Z,96900.00
2022-12-19T04:19:44.942Z,96898.31
2022-12-19T04:20:55.621Z,96896.59
2022-12-19T04:22:08.255Z,96898.28
2022-12-19T04:23:17.965Z,96894.09
2022-12-19T04:24:29.041Z,96896.59
2022-12-19T04:25:35.069Z,96899.19
2022-12-19T04:26:41.870Z,96890.66
2022-12-19T04:27:48.352Z,96892.44
2022-12-19T04:28:57.186Z,96906.00
2022-12-19T04:30:01.263Z,96902.63
2022-12-19T04:31:07.350Z,96901.75
2022-12-19T04:32:11.317Z,96903.44
2022-12-19T04:33:15.892Z,96901.75
2022-12-19T04:34:20.920Z,96896.66
2022-12-19T04:35:25.780Z,96901.75
2022-12-19T04:36:32.993Z,96901.78
2022-12-19T04:37:35.058Z,96900.09
2022-12-19T04:38:39.762Z,96893.31
2022-12-19T04:39:41.799Z,96894.19
2022-12-19T04:40:46.378Z,96891.66
2022-12-19T04:41:48.366Z,96889.94
2022-12-19T04:42:52.939Z,96887.41
2022-12-19T04:43:55.159Z,96890.81
2022-12-19T04:44:59.744Z,96894.19
2022-12-19T04:46:01.944Z,96888.28
2022-12-19T04:47:06.775Z,96895.03
2022-12-19T04:48:08.925Z,96892.50
2022-12-19T04:49:13.546Z,96895.09
2022-12-19T04:50:15.693Z,96887.44
2022-12-19T04:51:20.268Z,96884.91
2022-12-19T04:52:24.820Z,96889.19
2022-12-19T04:53:29.421Z,96895.09
2022-12-19T04:54:32.536Z,96897.66
2022-12-19T04:55:37.286Z,96890.06
2022-12-19T04:56:39.262Z,96895.16
2022-12-19T04:57:43.990Z,96891.75
2022-12-19T04:58:46.071Z,96890.03
2022-12-19T04:59:50.615Z,96891.75
2022-12-19T05:00:52.670Z,96894.31
2022-12-19T05:01:57.299Z,96892.63
2022-12-19T05:02:59.898Z,96890.94
2022-12-19T05:04:05.123Z,96890.94
2022-12-19T05:05:07.771Z,96890.94
2022-12-19T05:06:14.966Z,96890.09
2022-12-19T05:07:17.213Z,96891.78
2022-12-19T05:08:24.383Z,96885.84
2022-12-19T05:09:26.483Z,96897.72
2022-12-19T05:10:31.044Z,96891.81
2022-12-19T05:11:33.802Z,96893.50
2022-12-19T05:12:38.550Z,96895.19
2022-12-19T05:13:40.750Z,96893.53
2022-12-19T05:14:45.298Z,96890.97
2022-12-19T05:15:56.259Z,96897.75
2022-12-19T05:17:01.132Z,96897.78
2022-12-19T05:18:04.240Z,96892.69
2022-12-19T05:19:08.816Z,96887.59
2022-12-19T05:20:11.787Z,96895.22
2022-12-19T05:21:16.888Z,96888.44
2022-12-19T05:22:18.860Z,96886.75
2022-12-19T05:23:26.361Z,96900.34
2022-12-19T05:24:28.350Z,96896.13
2022-12-19T05:25:32.904Z,96894.41
2022-12-19T05:26:34.855Z,96897.81
2022-12-19T05:27:39.438Z,96898.66
2022-12-19T05:28:41.771Z,96896.97
2022-12-19T05:29:46.316Z,96895.28
2022-12-19T05:30:52.197Z,96895.28
2022-12-19T05:31:57.233Z,96893.56
2022-12-19T05:32:59.731Z,96895.28
2022-12-19T05:34:04.362Z,96895.28
2022-12-19T05:35:07.399Z,96891.88
2022-12-19T05:36:14.426Z,96888.50
2022-12-19T05:37:16.366Z,96889.34
2022-12-19T05:38:20.952Z,96887.66
2022-12-19T05:39:25.538Z,96887.63
2022-12-19T05:40:30.112Z,96888.47
2022-12-19T05:41:32.203Z,96888.50
2022-12-19T05:42:36.774Z,96884.25
2022-12-19T05:43:38.753Z,96889.34
2022-12-19T05:44:43.681Z,96888.53
2022-12-19T05:45:45.613Z,96885.13
2022-12-19T05:46:50.219Z,96889.38
2022-12-19T05:47:52.176Z,96891.03
2022-12-19T05:48:56.991Z,96885.97
2022-12-19T05:49:59.119Z,96880.88
2022-12-19T05:51:04.033Z,96879.19
2022-12-19T05:52:06.026Z,96882.59
2022-12-19T05:53:10.796Z,96886.00
2022-12-19T05:54:15.421Z,96881.75
2022-12-19T05:55:20.036Z,96883.47
2022-12-19T05:56:25.928Z,96880.06
2022-12-19T05:57:27.887Z,96886.84
2022-12-19T05:58:32.433Z,96885.16
2022-12-19T05:59:34.437Z,96886.03
2022-12-19T06:00:39.028Z,96877.53
2022-12-19T06:01:41.124Z,96884.34
2022-12-19T06:02:49.847Z,96877.56
2022-12-19T06:03:52.819Z,96883.50
2022-12-19T06:04:57.409Z,96881.78
2022-12-19T06:06:03.987Z,96880.13
2022-12-19T06:07:08.538Z,96875.88
2022-12-19T06:08:10.586Z,96870.75
2022-12-19T06:09:15.924Z,96873.31
2022-12-19T06:10:20.551Z,96872.41
2022-12-19T06:13:07.063Z,96864.81
2022-12-19T06:14:09.158Z,96868.22
2022-12-19T06:15:14.416Z,96873.31
2022-12-19T06:16:18.490Z,96870.75
2022-12-19T06:17:23.183Z,96860.56
2022-12-19T06:18:25.235Z,96861.41
2022-12-19T06:19:30.741Z,96865.66
2022-12-19T06:20:32.722Z,96865.66
2022-12-19T06:21:42.290Z,96858.00
2022-12-19T06:22:47.611Z,96863.09
2022-12-19T06:23:52.551Z,96857.19
2022-12-19T06:24:54.554Z,96855.50
2022-12-19T06:26:02.939Z,96854.66
2022-12-19T06:27:07.667Z,96853.78
2022-12-19T06:28:09.627Z,96848.69
2022-12-19T06:29:14.244Z,96851.25
2022-12-19T06:30:16.353Z,96847.00
2022-12-19T06:31:25.181Z,96852.97
2022-12-19T06:32:27.212Z,96847.84
2022-12-19T06:33:32.689Z,96842.75
2022-12-19T06:35:02.757Z,96853.78
2022-12-19T06:36:02.374Z,96854.63
2022-12-19T06:37:08.098Z,96861.41
2022-12-19T06:38:13.110Z,96859.72
2022-12-19T06:39:18.740Z,96868.25
2022-12-19T06:40:35.553Z,96868.25
2022-12-19T06:41:55.234Z,96870.78
2022-12-19T06:42:59.782Z,96869.06
2022-12-19T06:44:03.884Z,96869.94
2022-12-19T06:45:09.657Z,96866.53
2022-12-19T06:46:11.933Z,96869.94
2022-12-19T06:47:16.601Z,96860.59
2022-12-19T06:48:18.729Z,96850.38
2022-12-19T06:49:23.360Z,96859.75
2022-12-19T06:50:25.825Z,96850.38
2022-12-19T06:51:30.652Z,96854.66
2022-12-19T06:52:35.200Z,96854.66
2022-12-19T06:53:40.474Z,96853.81
2022-12-19T06:54:45.298Z,96858.06
2022-12-19T06:55:47.739Z,96862.31
2022-12-19T06:56:54.860Z,96855.50
2022-12-19T06:57:57.128Z,96854.66
2022-12-19T06:59:02.113Z,96855.53
2022-12-19T07:00:06.341Z,96854.66
2022-12-19T07:01:19.286Z,96847.03
2022-12-19T07:02:30.524Z,96843.63
2022-12-19T07:03:38.231Z,96840.25
2022-12-19T07:04:48.761Z,96844.50
2022-12-19T07:05:50.934Z,96836.81
2022-12-19T07:06:55.523Z,96840.25
2022-12-19T07:08:00.101Z,96830.88
2022-12-19T07:09:02.077Z,96829.19
2022-12-19T07:10:07.683Z,96827.50
2022-12-19T07:11:10.610Z,96824.94
2022-12-19T07:12:17.847Z,96824.09
2022-12-19T07:13:19.817Z,96825.78
2022-12-19T07:14:24.531Z,96834.28
2022-12-19T07:15:27.277Z,96830.91
2022-12-19T07:16:31.962Z,96839.41
2022-12-19T07:17:36.713Z,96836.00
2022-12-19T07:18:40.470Z,96833.44
2022-12-19T07:19:45.511Z,96832.59
2022-12-19T07:20:50.142Z,96835.13
2022-12-19T07:21:52.275Z,96845.38
2022-12-19T07:22:57.314Z,96845.38
2022-12-19T07:23:59.842Z,96845.34
2022-12-19T07:25:06.118Z,96847.91
2022-12-19T07:26:11.074Z,96846.22
2022-12-19T07:27:18.301Z,96848.75
2022-12-19T07:28:20.382Z,96842.81
2022-12-19T07:29:25.535Z,96851.31
2022-12-19T07:30:27.673Z,96850.47
2022-12-19T07:31:32.296Z,96855.56
2022-12-19T07:32:34.538Z,96847.91
2022-12-19T07:33:39.197Z,96849.63
2022-12-19T07:34:41.163Z,96854.72
2022-12-19T07:35:45.785Z,96850.47
2022-12-19T07:36:50.409Z,96854.72
2022-12-19T07:37:54.957Z,96858.97
2022-12-19T07:38:59.559Z,96864.06
2022-12-19T07:40:04.735Z,96860.66
2022-12-19T07:41:06.723Z,96858.97
2022-12-19T07:42:11.314Z,96859.84
2022-12-19T07:43:18.486Z,96858.13
2022-12-19T07:44:23.020Z,96859.84
2022-12-19T07:45:25.039Z,96857.28
2022-12-19T07:46:31.375Z,96858.97
2022-12-19T07:47:36.292Z,96868.34
2022-12-19T07:48:40.924Z,96870.91
2022-12-19T07:49:42.971Z,96869.16
2022-12-19T07:50:47.851Z,96869.19
2022-12-19T07:51:52.621Z,96870.03
2022-12-19T07:52:57.291Z,96864.94
2022-12-19T07:54:01.988Z,96863.22
2022-12-19T07:55:04.806Z,96868.34
2022-12-19T07:56:10.639Z,96868.34
2022-12-19T07:57:15.751Z,96853.00
2022-12-19T07:58:20.540Z,96861.50
2022-12-19T07:59:30.333Z,96858.09
2022-12-19T08:00:36.912Z,96856.38
2022-12-19T08:01:39.096Z,96865.72
2022-12-19T08:02:43.874Z,96864.88
2022-12-19T08:03:46.458Z,96859.75
2022-12-19T08:04:51.050Z,96866.56
2022-12-19T08:05:55.621Z,96864.00
2022-12-19T08:07:00.174Z,96873.34
2022-12-19T08:08:05.025Z,96871.63
2022-12-19T08:09:07.257Z,96866.50
2022-12-19T08:10:15.072Z,96866.50
2022-12-19T08:11:18.795Z,96861.34
2022-12-19T08:12:23.704Z,96867.34
2022-12-19T08:13:37.216Z,96866.50
2022-12-19T08:14:43.374Z,96862.19
2022-12-19T08:15:45.405Z,96859.63
2022-12-19T08:17:19.257Z,96863.84
2022-12-19T08:18:14.877Z,96851.91
2022-12-19T08:19:16.898Z,96849.34
2022-12-19T08:20:22.083Z,96862.06
2022-12-19T08:21:24.995Z,96852.69
2022-12-19T08:22:31.819Z,96852.66
2022-12-19T08:23:34.025Z,96848.34
2022-12-19T08:24:38.619Z,96847.44
2022-12-19T08:25:43.189Z,96858.53
2022-12-19T08:26:47.765Z,96851.69
2022-12-19T08:27:52.504Z,96846.47
2022-12-19T08:29:00.914Z,96854.13
2022-12-19T08:30:05.583Z,96848.09
2022-12-19T08:31:09.441Z,96842.97
2022-12-19T08:32:20.234Z,96852.31
2022-12-19T08:33:22.857Z,96852.28
2022-12-19T08:34:27.390Z,96858.22
2022-12-19T08:35:32.030Z,96858.19
2022-12-19T08:36:38.162Z,96860.72
2022-12-19T08:37:42.821Z,96859.00
2022-12-19T08:38:47.951Z,96858.13
2022-12-19T08:44:25.135Z,96852.78
2022-12-19T08:45:29.674Z,96855.31
2022-12-19T08:46:34.242Z,96851.84
2022-12-19T08:47:39.074Z,96850.94
2022-12-19T08:48:41.031Z,96847.50
2022-12-19T08:49:45.565Z,96856.84
2022-12-19T08:50:54.574Z,96848.25
2022-12-19T08:51:56.716Z,96842.19
2022-12-19T08:53:01.343Z,96848.09
2022-12-19T08:54:10.816Z,96852.31
2022-12-19T08:55:16.543Z,96856.47
2022-12-19T08:56:22.963Z,96858.09
2022-12-19T08:57:27.504Z,96864.00
2022-12-19T08:58:33.371Z,96866.56
2022-12-19T08:59:40.594Z,96866.53
2022-12-19T09:00:45.475Z,96868.25
2022-12-19T09:01:59.067Z,96863.88
2022-12-19T09:03:04.010Z,96864.78
2022-12-19T09:05:16.090Z,96855.34
2022-12-19T09:06:05.373Z,96857.84
2022-12-19T09:06:59.310Z,96862.84
2022-12-19T09:08:03.990Z,96860.22
2022-12-19T09:09:08.806Z,96863.56
2022-12-19T09:10:13.360Z,96862.63
2022-12-19T09:11:21.152Z,96859.97
2022-12-19T09:12:25.734Z,96856.44
2022-12-19T09:13:31.321Z,96856.31
2022-12-19T09:14:33.787Z,96854.50
2022-12-19T09:15:41.023Z,96850.97
2022-12-19T09:16:46.724Z,96856.00
2022-12-19T09:17:51.323Z,96852.50
2022-12-19T09:18:58.909Z,96848.09
2022-12-19T09:20:03.544Z,96854.03
2022-12-19T09:21:07.853Z,96853.06
2022-12-19T09:22:12.481Z,96853.03
2022-12-19T09:23:14.465Z,96849.56
2022-12-19T09:24:18.997Z,96840.88
2022-12-19T09:25:23.542Z,96849.38
2022-12-19T09:26:27.302Z,96842.41
2022-12-19T09:28:17.435Z,96842.28
2022-12-19T09:29:03.729Z,96841.34
2022-12-19T09:30:16.925Z,96839.50
2022-12-19T09:31:26.573Z,96829.97
2022-12-19T09:32:31.201Z,96828.16
2022-12-19T09:33:43.113Z,96822.09
2022-12-19T09:34:48.325Z,96828.09
2022-12-19T09:35:51.406Z,96822.00
2022-12-19T09:36:56.852Z,96832.22
2022-12-19T09:38:01.507Z,96829.56
2022-12-19T09:39:06.260Z,96836.38
2022-12-19T09:40:15.941Z,96825.19
2022-12-19T09:41:34.084Z,96828.59
2022-12-19T09:42:59.264Z,96825.97
2022-12-19T09:44:14.660Z,96825.97
2022-12-19T09:45:31.731Z,96819.91
2022-12-19T09:46:50.749Z,96824.16
2022-12-19T09:48:00.388Z,96825.91
2022-12-19T09:49:04.955Z,96833.63
2022-12-19T09:50:26.950Z,96834.50
2022-12-19T09:51:38.357Z,96828.53
2022-12-19T09:52:50.175Z,96825.91
2022-12-19T09:54:05.355Z,96830.19
2022-12-19T09:55:21.964Z,96821.50
2022-12-19T09:56:30.162Z,96825.63
2022-12-19T09:57:43.136Z,96816.09
2022-12-19T09:58:52.315Z,96809.97
2022-12-19T10:00:00.406Z,96811.56
2022-12-19T10:01:10.377Z,96804.53
2022-12-19T10:02:40.451Z,96802.66
2022-12-19T10:03:47.966Z,96812.75
2022-12-19T10:05:02.514Z,96805.84
2022-12-19T10:07:07.809Z,96802.19
2022-12-19T10:08:07.628Z,96801.03
2022-12-19T10:10:54.651Z,96800.66
2022-12-19T10:12:36.334Z,96799.47
2022-12-19T10:12:45.398Z,96795.69
2022-12-19T10:14:18.983Z,96800.50
2022-12-19T10:15:32.185Z,96803.63
2022-12-19T10:16:56.350Z,96798.22
2022-12-19T10:18:27.159Z,96796.28
2022-12-19T10:19:45.200Z,96793.50
2022-12-19T10:20:57.411Z,96795.03
2022-12-19T10:22:18.371Z,96794.03
2022-12-19T10:23:52.991Z,96792.00
2022-12-19T10:25:14.800Z,96793.34
2022-12-19T10:26:23.435Z,96796.38
2022-12-19T10:27:43.968Z,96785.69
2022-12-19T10:29:23.756Z,96785.13
2022-12-19T10:30:26.361Z,96781.28
2022-12-19T10:31:38.975Z,96772.28
2022-12-19T10:32:51.576Z,96767.69
2022-12-19T10:34:02.727Z,96766.47
2022-12-19T10:35:16.597Z,96768.94
2022-12-19T10:36:18.718Z,96767.97
2022-12-19T10:37:35.146Z,96765.50
2022-12-19T10:38:53.359Z,96758.81
2022-12-19T10:40:07.330Z,96760.78
2022-12-19T10:41:21.989Z,96767.13
2022-12-19T10:42:36.284Z,96766.69
2022-12-19T10:43:49.622Z,96757.63
2022-12-19T10:44:56.804Z,96758.06
2022-12-19T10:46:06.470Z,96753.19
2022-12-19T10:47:16.881Z,96758.63
2022-12-19T10:48:31.255Z,96768.25
2022-12-19T10:49:38.757Z,96758.88
2022-12-19T10:50:43.284Z,96763.28
2022-12-19T10:51:56.668Z,96766.78
2022-12-19T10:53:11.898Z,96760.00
2022-12-19T10:54:16.543Z,96755.75
2022-12-19T10:55:40.523Z,96760.28
2022-12-19T10:56:45.116Z,96766.38
2022-12-19T10:57:47.120Z,96756.88
2022-12-19T10:58:57.423Z,96762.91
2022-12-19T11:00:04.281Z,96759.53
2022-12-19T11:01:15.788Z,96745.72
2022-12-19T11:02:34.111Z,96744.84
2022-12-19T11:03:39.911Z,96736.91
2022-12-19T11:04:50.773Z,96736.66
2022-12-19T11:05:58.683Z,96739.72
2022-12-19T11:07:22.126Z,96745.16
2022-12-19T11:08:26.821Z,96738.59
2022-12-19T11:09:33.002Z,96733.72
2022-12-19T11:12:35.548Z,96735.72
2022-12-19T11:16:33.697Z,96731.47
2022-12-19T11:18:00.545Z,96731.91
2022-12-19T11:20:49.691Z,96736.78
2022-12-19T11:21:16.810Z,96738.41
2022-12-19T11:28:24.509Z,96738.13
2022-12-19T11:29:26.554Z,96737.91
2022-12-19T11:29:30.354Z,96721.56
2022-12-19T11:29:32.068Z,96747.09
2022-12-19T11:29:34.222Z,96740.53
2022-12-19T11:29:34.916Z,96734.84
2022-12-19T11:30:38.846Z,96713.22
2022-12-19T11:30:47.267Z,96727.31
2022-12-19T11:32:53.027Z,96705.50
2022-12-19T11:34:05.901Z,96700.34
2022-12-19T11:35:24.621Z,96695.66
2022-12-19T11:36:40.573Z,96695.84
2022-12-19T11:37:55.099Z,96688.09
2022-12-19T11:39:00.415Z,96688.03
2022-12-19T11:40:08.557Z,96686.38
2022-12-19T11:41:17.617Z,96678.00
2022-12-19T11:42:27.411Z,96671.50
2022-12-19T11:43:44.600Z,96681.66
2022-12-19T11:44:53.810Z,96674.88
2022-12-19T11:46:05.704Z,96674.25
2022-12-19T11:47:23.246Z,96667.34
2022-12-19T11:48:39.956Z,96669.91
2022-12-19T11:49:49.305Z,96673.34
2022-12-19T11:51:04.182Z,96671.72
2022-12-19T11:53:55.193Z,96685.47
2022-12-19T11:55:04.804Z,96674.69
2022-12-19T11:56:16.576Z,96671.81
2022-12-19T11:57:21.763Z,96668.97
2022-12-19T11:58:28.643Z,96670.38
2022-12-19T11:59:37.195Z,96669.44
2022-12-19T12:00:48.906Z,96668.41
2022-12-19T12:02:03.471Z,96669.38
2022-12-19T12:03:37.367Z,96672.72
2022-12-19T12:04:57.714Z,96669.22
2022-12-19T12:06:03.315Z,96681.88
2022-12-19T12:07:25.519Z,96668.44
2022-12-19T12:11:08.004Z,96675.19
2022-12-19T12:16:29.562Z,96673.38
2022-12-19T12:16:32.949Z,96674.19
2022-12-19T12:23:12.162Z,96680.25
2022-12-19T12:27:52.508Z,96681.31
2022-12-19T12:29:41.600Z,96681.28
2022-12-19T12:31:00.245Z,96672.81
2022-12-19T12:31:16.209Z,96675.47
2022-12-19T12:31:27.996Z,96674.75
2022-12-19T12:31:32.346Z,96675.66
2022-12-19T12:31:42.777Z,96674.31
2022-12-19T12:31:47.568Z,96677.56
2022-12-19T12:31:58.471Z,96690.31
2022-12-19T12:32:05.400Z,96696.97
2022-12-19T12:35:16.150Z,96685.19
2022-12-19T12:35:48.783Z,96690.66
2022-12-19T12:35:56.814Z,96685.09
2022-12-19T12:39:28.222Z,96685.31
2022-12-19T12:40:56.164Z,96688.69
2022-12-19T12:42:11.679Z,96694.91
2022-12-19T12:43:31.004Z,96702.78
2022-12-19T12:44:45.194Z,96698.72
2022-12-19T12:45:50.404Z,96697.97
2022-12-19T12:47:03.542Z,96693.59
2022-12-19T12:48:20.285Z,96698.53
2022-12-19T12:49:38.602Z,96694.97
2022-12-19T12:50:47.453Z,96680.97
2022-12-19T12:51:52.395Z,96685.75
2022-12-19T12:53:00.013Z,96682.03
2022-12-19T12:54:10.196Z,96688.56
2022-12-19T12:55:32.561Z,96682.16
2022-12-19T12:56:38.308Z,96677.41
2022-12-19T12:57:43.091Z,96677.97
2022-12-19T12:59:05.513Z,96676.69
2022-12-19T13:00:25.863Z,96672.16
2022-12-19T13:01:37.892Z,96672.91
2022-12-19T13:02:43.172Z,96667.53
2022-12-19T13:03:58.220Z,96670.03
2022-12-19T13:05:17.837Z,96654.31
2022-12-19T13:06:29.281Z,96654.09
2022-12-19T13:07:45.084Z,96655.75
2022-12-19T13:08:52.104Z,96662.66
2022-12-19T13:10:15.144Z,96658.31
2022-12-19T13:11:53.284Z,96652.47
2022-12-19T13:13:05.145Z,96652.81
2022-12-19T13:14:51.287Z,96660.75
2022-12-19T13:15:55.858Z,96669.75
2022-12-19T13:16:58.026Z,96663.03
2022-12-19T13:18:38.086Z,96657.91
2022-12-19T13:19:56.497Z,96663.91
2022-12-19T13:20:59.942Z,96663.19
2022-12-19T13:22:24.003Z,96657.03
2022-12-19T13:23:49.585Z,96659.81
2022-12-19T13:24:56.790Z,96652.84
2022-12-19T13:26:01.357Z,96648.47
2022-12-19T13:27:35.376Z,96651.06
2022-12-19T13:28:45.489Z,96658.66
2022-12-19T13:30:04.701Z,96650.13
2022-12-19T13:31:20.274Z,96653.56
2022-12-19T13:32:26.793Z,96654.34
2022-12-19T13:33:48.315Z,96646.59
2022-12-19T13:35:16.585Z,96655.97
2022-12-19T13:39:56.170Z,96654.13
2022-12-19T13:39:57.007Z,96649.84
2022-12-19T13:40:11.013Z,96651.69
2022-12-19T13:41:42.631Z,96651.66
2022-12-19T13:43:13.537Z,96660.28
2022-12-19T13:44:22.458Z,96666.47
2022-12-19T13:45:30.518Z,96661.28
2022-12-19T13:46:43.401Z,96663.78
2022-12-19T13:47:49.652Z,96655.19
2022-12-19T13:48:56.775Z,96658.56